Portada
METAR-TAF:

METAR-TAF

Aeroports :

Waddington, Anglaterra

latitud: 53-10N, longitud: 000-31W, altitud: 68 m

Observació

L'informe es va fer fa 54 minuts, a les 21:50 UTC
Vent 10 kt del Oest
Temperatura 9°C
Humitat 81%
Pressió 1004 hPa
Visibilitat 10 km o més

METAR: EGXW 062150Z AUTO 26010KT 9999 FEW024/// SCT037/// 09/06 Q1004

Hora: 22:44 (22:44 UTC)

Pronòstic

L'informe es va fer fa 6 hores i 12 minuts, a les 16:32 UTC
Pronòstic vàlid del 06 a les 18 UTC al 07 a les 12 UTC
Vent 10 kt del Oest
Visibilitat 10 km o més
Escasses núvols a una alçada de 2000 ft
Probabilitat 30% :
Temporalment
l' 06 a les 18 UTC al 06 a les 20 UTC
Núvols disperses a una alçada de 2000 ft

TAF: EGXW 061632Z 0618/0712 26010KT 9999 FEW020 PROB30 TEMPO 0618/0620 SCT020

Observacions i pronòstics meteorològics de més de 4000 aeroports (METAR i TAF).

Les estacions disponibles són els punts grocs i vermells al mapa.

Posi el ratolí al punt desitjat per veure el nom de l'estació.

Feu clic per veure les observacions i els pronòstics meteorològics.

Per canviar el mapa: feu clic els botons verds amb una creu de color negre per apropar; al botó verd amb un guió per allunyar la imatge; o en les fletxes verdes per a mapes adjacents.


METAR-TAF: